Time;durP1;ratioP1;P1;durP2;ratioP2;P2;SDS_P1;SDS_P2;PMS_P1;PMS_P2;Temp;Humidity;BMP_temperature;BMP_pressure;BME280_temperature;BME280_humidity;BME280_pressure;Samples;Min_cycle;Max_cycle;Signal;HPM_P1;HPM_P2
2022/08/31 00:03:58;;;;;;;4.47;3.85;;;24.00;99.90;;;;;;5102677;28;20023;-76
2022/08/31 00:06:24;;;;;;;6.72;4.68;;;24.00;99.90;;;;;;5112845;28;20030;-76
2022/08/31 00:08:49;;;;;;;6.00;3.53;;;24.00;99.90;;;;;;5108420;28;20032;-76
2022/08/31 00:11:17;;;;;;;5.65;3.45;;;24.00;99.90;;;;;;5112576;28;20434;-76
2022/08/31 00:13:43;;;;;;;5.40;3.97;;;24.00;99.90;;;;;;5108322;28;20059;-77
2022/08/31 00:16:10;;;;;;;5.47;4.22;;;24.00;99.90;;;;;;5111529;28;20024;-76
2022/08/31 00:18:37;;;;;;;6.97;4.18;;;24.00;99.90;;;;;;5105184;28;20091;-76
2022/08/31 00:21:04;;;;;;;7.05;3.97;;;24.00;99.90;;;;;;5095103;28;20058;-76
2022/08/31 00:23:30;;;;;;;5.68;3.97;;;24.00;99.90;;;;;;5101040;28;20024;-75
2022/08/31 00:25:56;;;;;;;8.32;4.20;;;24.00;99.90;;;;;;5111917;28;20019;-76
2022/08/31 00:28:22;;;;;;;5.32;4.20;;;24.10;99.90;;;;;;5106291;28;20028;-76
2022/08/31 00:30:48;;;;;;;5.82;3.92;;;24.10;99.90;;;;;;5112376;28;20036;-76
2022/08/31 00:33:14;;;;;;;4.20;3.83;;;24.10;99.90;;;;;;5107664;28;20081;-76
2022/08/31 00:35:41;;;;;;;7.43;4.00;;;24.10;99.90;;;;;;5112040;28;20054;-76
2022/08/31 00:38:09;;;;;;;9.05;4.28;;;24.10;99.90;;;;;;5106192;28;20015;-76
2022/08/31 00:40:36;;;;;;;4.18;3.75;;;24.10;99.90;;;;;;5084501;28;20115;-76
2022/08/31 00:43:02;;;;;;;4.75;4.25;;;24.10;99.90;;;;;;5094887;28;20019;-76
2022/08/31 00:45:28;;;;;;;5.93;3.67;;;24.20;99.90;;;;;;5108822;28;20024;-76
2022/08/31 00:47:54;;;;;;;4.63;3.90;;;24.10;99.90;;;;;;5108981;28;20414;-76
2022/08/31 00:50:22;;;;;;;5.82;4.40;;;24.10;99.90;;;;;;5108815;28;20486;-76
2022/08/31 00:52:59;;;;;;;7.47;4.47;;;24.10;99.90;;;;;;5106810;28;20050;-76
2022/08/31 00:55:34;;;;;;;5.50;4.22;;;24.10;99.90;;;;;;5109661;28;20108;-76
2022/08/31 00:58:05;;;;;;;7.55;4.20;;;24.00;99.90;;;;;;5108598;28;20019;-76
2022/08/31 01:00:31;;;;;;;6.55;4.18;;;24.10;99.90;;;;;;5111610;28;20092;-76
2022/08/31 01:03:00;;;;;;;6.95;4.32;;;24.10;99.90;;;;;;5108909;28;20469;-76
2022/08/31 01:05:27;;;;;;;6.47;4.20;;;24.10;99.90;;;;;;5109664;28;20102;-76
2022/08/31 01:07:53;;;;;;;6.57;4.20;;;24.00;99.90;;;;;;5107569;28;20036;-77
2022/08/31 01:10:22;;;;;;;5.93;4.35;;;24.00;99.90;;;;;;5094598;28;20028;-78
2022/08/31 01:12:51;;;;;;;6.80;4.20;;;24.00;99.90;;;;;;5098323;28;20046;-77
2022/08/31 01:15:17;;;;;;;6.95;4.32;;;24.00;99.90;;;;;;5095711;28;20052;-77
2022/08/31 01:17:47;;;;;;;9.88;4.47;;;24.00;99.90;;;;;;5096146;28;20016;-76
2022/08/31 01:20:47;;;;;;;7.57;4.90;;;24.00;99.90;;;;;;5108839;28;20032;-76
2022/08/31 01:23:33;;;;;;;8.00;4.10;;;24.00;99.90;;;;;;5106750;28;20015;-76
2022/08/31 01:26:01;;;;;;;4.78;3.92;;;23.90;99.90;;;;;;5111259;28;20024;-76
2022/08/31 01:28:27;;;;;;;5.13;3.95;;;23.90;99.90;;;;;;5106472;28;20031;-76
2022/08/31 01:31:06;;;;;;;5.72;4.38;;;23.90;99.90;;;;;;5111349;28;20028;-76
2022/08/31 01:33:34;;;;;;;7.38;4.40;;;23.90;99.90;;;;;;5106324;27;20035;-76
2022/08/31 01:36:00;;;;;;;6.22;4.30;;;23.90;99.90;;;;;;5110726;27;20092;-76
2022/08/31 01:38:26;;;;;;;4.70;4.13;;;23.90;99.90;;;;;;5105908;28;20103;-76
2022/08/31 01:40:55;;;;;;;7.20;4.53;;;23.90;99.90;;;;;;5111158;28;20032;-77
2022/08/31 01:43:21;;;;;;;5.60;4.00;;;24.00;99.90;;;;;;5103767;28;20058;-75
2022/08/31 01:45:47;;;;;;;5.40;4.63;;;24.00;99.90;;;;;;5109672;28;20118;-76
2022/08/31 01:48:13;;;;;;;7.50;4.05;;;24.00;99.90;;;;;;5106182;28;20456;-76
2022/08/31 01:50:39;;;;;;;8.35;4.25;;;24.10;99.90;;;;;;5109458;28;20026;-76
2022/08/31 01:53:05;;;;;;;5.43;4.22;;;24.10;99.90;;;;;;5107083;27;20028;-76
2022/08/31 01:55:30;;;;;;;5.10;4.43;;;24.10;99.90;;;;;;5110101;28;20022;-76
2022/08/31 01:57:57;;;;;;;6.80;4.80;;;24.10;99.90;;;;;;5107521;28;20039;-76
2022/08/31 02:00:23;;;;;;;4.88;4.05;;;24.20;99.90;;;;;;5107783;28;20111;-76
2022/08/31 02:02:49;;;;;;;10.95;4.65;;;24.10;99.90;;;;;;5107496;28;20098;-76
2022/08/31 02:05:14;;;;;;;4.30;3.90;;;24.20;99.90;;;;;;5107876;28;20050;-76
2022/08/31 02:07:41;;;;;;;6.80;4.28;;;24.20;99.90;;;;;;5107529;28;20114;-76
2022/08/31 02:10:07;;;;;;;6.45;4.30;;;24.20;99.90;;;;;;5096866;28;20143;-76
2022/08/31 02:12:33;;;;;;;6.68;3.97;;;24.20;99.90;;;;;;5089455;28;20494;-76
2022/08/31 02:14:59;;;;;;;5.93;4.13;;;24.20;99.90;;;;;;5108156;28;20034;-76
2022/08/31 02:17:25;;;;;;;7.43;4.60;;;24.20;99.90;;;;;;5107309;28;20055;-76
2022/08/31 02:19:50;;;;;;;6.47;4.55;;;24.30;99.90;;;;;;5107179;28;20074;-76
2022/08/31 02:22:16;;;;;;;6.05;4.30;;;24.30;99.90;;;;;;5108605;28;20012;-76
2022/08/31 02:24:42;;;;;;;10.93;4.72;;;24.30;99.90;;;;;;5093541;28;20757;-76
2022/08/31 02:27:08;;;;;;;4.72;4.25;;;24.30;99.90;;;;;;5090359;28;20036;-75
2022/08/31 02:29:34;;;;;;;7.80;4.70;;;24.30;99.90;;;;;;5107415;28;20047;-76
2022/08/31 02:31:59;;;;;;;4.88;4.03;;;24.30;99.90;;;;;;5109877;28;20035;-76
2022/08/31 02:34:25;;;;;;;5.50;4.32;;;24.20;99.90;;;;;;5103416;28;20053;-75
2022/08/31 02:36:51;;;;;;;6.13;4.82;;;24.30;99.90;;;;;;5111672;28;20047;-75
2022/08/31 02:39:17;;;;;;;8.15;4.47;;;24.30;99.90;;;;;;5103694;28;20387;-75
2022/08/31 02:41:42;;;;;;;7.03;4.38;;;24.30;99.90;;;;;;5110936;28;20023;-75
2022/08/31 02:44:08;;;;;;;9.68;4.78;;;24.30;99.90;;;;;;5103066;28;20370;-75
2022/08/31 02:46:34;;;;;;;6.80;4.07;;;24.20;99.90;;;;;;5109752;28;20038;-75
2022/08/31 02:49:00;;;;;;;6.03;4.30;;;24.20;99.90;;;;;;5105294;28;20069;-76
2022/08/31 02:51:26;;;;;;;5.95;4.43;;;24.20;99.90;;;;;;5090866;28;20390;-76
2022/08/31 02:53:52;;;;;;;7.07;4.40;;;24.20;99.90;;;;;;5101638;28;20028;-76
2022/08/31 02:56:18;;;;;;;6.03;4.53;;;24.20;99.90;;;;;;5109949;28;20541;-76
2022/08/31 02:58:43;;;;;;;4.90;3.95;;;24.20;99.90;;;;;;5105169;28;20015;-75
2022/08/31 03:01:09;;;;;;;6.38;4.40;;;24.30;99.90;;;;;;5108457;28;20023;-75
2022/08/31 03:03:35;;;;;;;7.03;4.40;;;24.30;99.90;;;;;;5104119;28;20020;-76
2022/08/31 03:06:01;;;;;;;9.98;4.25;;;24.30;99.90;;;;;;5109771;28;20468;-75
2022/08/31 03:08:27;;;;;;;6.93;4.60;;;24.30;99.90;;;;;;5104041;27;20201;-75
2022/08/31 03:10:53;;;;;;;5.32;4.43;;;24.30;99.90;;;;;;5109883;28;20110;-76
2022/08/31 03:13:20;;;;;;;5.25;4.32;;;24.30;99.90;;;;;;5104884;28;20024;-76
2022/08/31 03:15:45;;;;;;;7.05;4.53;;;24.20;99.90;;;;;;5108248;28;20030;-77
2022/08/31 03:18:11;;;;;;;5.28;3.92;;;24.20;99.90;;;;;;5104975;27;20016;-76
2022/08/31 03:20:37;;;;;;;5.97;4.15;;;24.20;99.90;;;;;;5109944;28;20039;-76
2022/08/31 03:23:04;;;;;;;5.00;4.20;;;24.20;99.90;;;;;;5105791;28;20016;-77
2022/08/31 03:25:29;;;;;;;5.18;4.30;;;24.10;99.90;;;;;;5109103;28;20028;-76
2022/08/31 03:27:55;;;;;;;9.95;4.32;;;24.10;99.90;;;;;;5105258;28;20093;-77
2022/08/31 03:30:22;;;;;;;6.60;4.60;;;24.00;99.90;;;;;;5107839;28;20048;-76
2022/08/31 03:32:49;;;;;;;8.02;4.65;;;24.00;99.90;;;;;;5106534;28;20023;-76
2022/08/31 03:35:16;;;;;;;5.65;4.80;;;24.00;99.90;;;;;;5099280;28;20043;-78
2022/08/31 03:37:43;;;;;;;5.20;4.70;;;23.90;99.90;;;;;;5092961;28;20034;-76
2022/08/31 03:40:10;;;;;;;6.32;4.57;;;23.90;99.90;;;;;;5108020;28;20020;-76
2022/08/31 03:42:35;;;;;;;9.15;4.97;;;23.80;99.90;;;;;;5104360;28;20024;-76
2022/08/31 03:45:01;;;;;;;8.85;4.85;;;23.70;99.90;;;;;;5107705;28;20023;-76
2022/08/31 03:47:27;;;;;;;5.53;4.50;;;23.70;99.90;;;;;;5107710;28;20054;-76
2022/08/31 03:49:53;;;;;;;8.10;5.20;;;23.70;99.90;;;;;;5106770;28;20474;-77
2022/08/31 03:52:20;;;;;;;5.78;4.60;;;23.70;99.90;;;;;;5109771;28;20024;-77
2022/08/31 03:54:46;;;;;;;7.93;4.60;;;23.60;99.90;;;;;;5094269;28;20027;-77
2022/08/31 03:57:12;;;;;;;10.80;4.55;;;23.60;99.90;;;;;;5091201;28;20028;-76
2022/08/31 03:59:38;;;;;;;9.32;5.18;;;23.70;99.90;;;;;;5102863;28;20024;-76
2022/08/31 04:02:04;;;;;;;10.40;5.60;;;23.60;99.90;;;;;;5113627;28;20019;-76
2022/08/31 04:04:30;;;;;;;7.55;5.22;;;23.60;99.90;;;;;;5106619;28;20432;-76
2022/08/31 04:06:56;;;;;;;8.30;5.25;;;23.60;99.90;;;;;;5112771;28;20122;-76
2022/08/31 04:09:21;;;;;;;9.38;5.32;;;23.50;99.90;;;;;;5105454;28;20032;-76
2022/08/31 04:11:47;;;;;;;7.15;5.63;;;23.50;99.90;;;;;;5114272;28;20020;-76
2022/08/31 04:14:14;;;;;;;5.97;5.43;;;23.40;99.90;;;;;;5105064;28;20394;-76
2022/08/31 04:16:41;;;;;;;7.65;5.60;;;23.40;99.90;;;;;;5114230;28;20031;-76
2022/08/31 04:19:07;;;;;;;9.05;5.15;;;23.30;99.90;;;;;;5107531;28;20024;-76
2022/08/31 04:21:33;;;;;;;5.30;4.80;;;23.30;99.90;;;;;;5112204;28;20374;-75
2022/08/31 04:24:00;;;;;;;9.63;5.20;;;23.20;99.90;;;;;;5097416;28;20023;-75
2022/08/31 04:26:27;;;;;;;6.25;5.03;;;23.20;99.90;;;;;;5094942;28;20031;-76
2022/08/31 04:28:54;;;;;;;7.22;5.80;;;23.20;99.90;;;;;;5102885;28;20486;-75
2022/08/31 04:31:21;;;;;;;7.32;5.18;;;23.10;99.90;;;;;;5111224;28;20285;-75
2022/08/31 04:33:47;;;;;;;8.23;5.57;;;23.10;99.90;;;;;;5107804;28;20047;-76
2022/08/31 04:36:16;;;;;;;11.05;5.38;;;23.00;99.90;;;;;;5095402;28;20082;-75
2022/08/31 04:38:47;;;;;;;9.50;5.25;;;22.90;99.90;;;;;;5096962;28;20101;-75
2022/08/31 04:41:16;;;;;;;9.75;5.75;;;22.90;99.90;;;;;;5095069;28;20013;-75
2022/08/31 04:43:45;;;;;;;5.80;5.18;;;23.00;99.90;;;;;;5097129;28;20489;-75
2022/08/31 04:46:11;;;;;;;7.43;5.32;;;23.00;99.90;;;;;;5110008;28;20019;-75
2022/08/31 04:48:38;;;;;;;5.40;4.90;;;23.00;99.90;;;;;;5106118;28;20535;-75
2022/08/31 04:51:10;;;;;;;6.53;5.30;;;23.00;99.90;;;;;;5112023;28;20047;-75
2022/08/31 04:53:37;;;;;;;6.63;5.35;;;23.00;99.90;;;;;;5107592;28;20028;-75
2022/08/31 04:56:13;;;;;;;6.05;5.45;;;23.10;99.90;;;;;;5112068;28;20023;-75
2022/08/31 04:58:49;;;;;;;6.57;5.20;;;23.10;99.90;;;;;;5106044;28;20031;-75
2022/08/31 05:01:19;;;;;;;11.43;5.15;;;23.10;99.90;;;;;;5111877;28;20020;-76
2022/08/31 05:03:49;;;;;;;6.53;5.60;;;23.10;99.90;;;;;;5107023;28;20031;-75
2022/08/31 05:06:16;;;;;;;6.60;5.28;;;23.10;99.90;;;;;;5110396;28;20016;-75
2022/08/31 05:08:43;;;;;;;5.53;5.03;;;23.20;99.90;;;;;;5106064;28;20028;-75
2022/08/31 05:11:14;;;;;;;11.90;5.63;;;23.10;99.90;;;;;;5110385;28;20051;-76
2022/08/31 05:13:40;;;;;;;8.40;5.93;;;23.20;99.90;;;;;;5104673;28;20020;-76
2022/08/31 05:16:11;;;;;;;9.68;5.55;;;23.10;99.90;;;;;;5111501;28;20020;-75
2022/08/31 05:18:38;;;;;;;8.98;4.93;;;23.20;99.90;;;;;;5106774;28;20111;-75
2022/08/31 05:21:12;;;;;;;6.80;5.10;;;23.20;99.90;;;;;;5111590;28;20020;-75
2022/08/31 05:23:38;;;;;;;5.75;5.05;;;23.20;99.90;;;;;;5106744;28;20262;-75
2022/08/31 05:26:05;;;;;;;13.07;5.50;;;23.20;99.90;;;;;;5111333;28;20493;-75
2022/08/31 05:28:32;;;;;;;7.40;5.30;;;23.30;99.90;;;;;;5105486;28;20071;-75
2022/08/31 05:30:59;;;;;;;9.38;5.32;;;23.30;99.90;;;;;;5109862;28;20019;-76
2022/08/31 05:33:26;;;;;;;7.57;5.20;;;23.40;99.90;;;;;;5104561;28;20076;-75
2022/08/31 05:35:52;;;;;;;10.13;5.03;;;23.40;99.90;;;;;;5093679;28;20036;-75
2022/08/31 05:38:17;;;;;;;9.40;5.97;;;23.50;99.90;;;;;;5097064;28;20085;-75
2022/08/31 05:40:52;;;;;;;8.00;5.15;;;23.40;99.90;;;;;;5093762;28;20490;-76
2022/08/31 05:43:17;;;;;;;6.30;5.05;;;23.50;99.90;;;;;;5095595;28;20020;-74
2022/08/31 05:45:43;;;;;;;9.02;4.97;;;23.60;99.90;;;;;;5096885;28;20039;-75
2022/08/31 05:48:09;;;;;;;5.70;4.68;;;23.70;99.90;;;;;;5095185;28;20032;-75
2022/08/31 05:50:36;;;;;;;6.35;4.95;;;23.80;99.90;;;;;;5099533;28;20047;-75
2022/08/31 05:53:02;;;;;;;4.72;4.30;;;23.90;99.90;;;;;;5096170;28;20038;-75
2022/08/31 05:55:30;;;;;;;6.55;4.53;;;24.10;99.90;;;;;;5110094;28;20020;-75
2022/08/31 05:57:56;;;;;;;6.43;4.82;;;24.20;99.90;;;;;;5107585;28;20363;-76
2022/08/31 06:00:24;;;;;;;6.47;4.68;;;24.30;99.90;;;;;;5107634;28;20470;-76
2022/08/31 06:02:50;;;;;;;6.35;4.53;;;24.50;99.90;;;;;;5107836;28;20471;-76
2022/08/31 06:05:16;;;;;;;8.23;4.88;;;24.60;99.90;;;;;;5107901;28;20024;-75
2022/08/31 06:07:42;;;;;;;6.90;4.35;;;24.70;99.90;;;;;;5108147;28;20043;-80
2022/08/31 06:10:08;;;;;;;6.97;4.68;;;24.70;99.90;;;;;;5093807;28;20030;-90
2022/08/31 06:12:37;;;;;;;7.60;4.60;;;24.80;99.90;;;;;;5094853;28;20031;-82
2022/08/31 06:15:04;;;;;;;6.30;4.80;;;24.90;99.90;;;;;;5106262;28;20355;-78
2022/08/31 06:17:31;;;;;;;7.20;5.20;;;25.00;99.90;;;;;;5106795;28;20038;-77
2022/08/31 06:19:58;;;;;;;9.30;4.72;;;25.10;99.90;;;;;;5100168;28;20024;-76
2022/08/31 06:22:24;;;;;;;9.15;5.07;;;25.20;99.90;;;;;;5109610;28;20020;-76
2022/08/31 06:24:50;;;;;;;8.30;4.78;;;25.30;99.90;;;;;;5095849;28;20078;-76
2022/08/31 06:27:16;;;;;;;6.47;4.65;;;25.30;99.90;;;;;;5090739;28;20410;-76
2022/08/31 06:29:42;;;;;;;9.63;4.82;;;25.40;99.90;;;;;;5105115;28;20024;-76
2022/08/31 06:32:08;;;;;;;6.22;4.65;;;25.40;99.90;;;;;;5110231;28;20080;-75
2022/08/31 06:34:35;;;;;;;6.63;4.93;;;25.50;99.90;;;;;;5096837;28;20103;-75
2022/08/31 06:37:01;;;;;;;6.78;4.50;;;25.50;99.90;;;;;;5090279;28;20050;-76
2022/08/31 06:39:27;;;;;;;5.65;4.50;;;25.50;99.90;;;;;;5104451;28;20103;-76
2022/08/31 06:41:54;;;;;;;7.40;4.78;;;25.50;99.90;;;;;;5111561;28;20103;-76
2022/08/31 06:44:22;;;;;;;4.10;3.72;;;25.40;99.90;;;;;;5104306;28;20401;-76
2022/08/31 06:46:49;;;;;;;7.57;4.40;;;25.40;99.90;;;;;;5111646;28;20059;-76
2022/08/31 06:49:16;;;;;;;5.05;4.25;;;25.40;99.90;;;;;;5094318;28;20039;-77
2022/08/31 06:51:42;;;;;;;8.38;5.05;;;25.40;99.90;;;;;;5087819;28;20024;-76
2022/08/31 06:54:11;;;;;;;8.85;5.20;;;25.40;99.90;;;;;;5101841;28;20636;-76
2022/08/31 06:56:37;;;;;;;7.28;4.88;;;25.40;99.90;;;;;;5109154;28;20496;-76
2022/08/31 06:59:04;;;;;;;9.20;4.80;;;25.40;99.90;;;;;;5103110;28;20385;-76
2022/08/31 07:01:32;;;;;;;6.78;4.55;;;25.50;99.90;;;;;;5110791;28;20023;-78
2022/08/31 07:04:00;;;;;;;9.82;5.32;;;25.60;99.90;;;;;;5105317;28;20375;-76
2022/08/31 07:06:29;;;;;;;8.40;4.68;;;25.70;99.90;;;;;;5108469;28;20489;-76
2022/08/31 07:08:57;;;;;;;6.65;4.50;;;25.80;99.90;;;;;;5105062;28;20481;-76
2022/08/31 07:11:27;;;;;;;11.70;5.07;;;25.90;99.90;;;;;;5109818;28;20019;-76
2022/08/31 07:13:55;;;;;;;8.27;4.75;;;26.10;99.90;;;;;;5103841;28;20028;-75
2022/08/31 07:16:22;;;;;;;6.00;4.57;;;26.20;99.90;;;;;;5109752;28;20026;-75
2022/08/31 07:18:49;;;;;;;7.25;4.75;;;26.40;99.90;;;;;;5099764;28;20028;-75
2022/08/31 07:21:19;;;;;;;7.28;4.70;;;26.50;99.90;;;;;;5092591;28;20517;-75
2022/08/31 07:23:47;;;;;;;10.07;4.80;;;26.70;99.70;;;;;;5095546;28;20032;-75
2022/08/31 07:26:21;;;;;;;5.65;4.35;;;26.80;99.60;;;;;;5092184;28;20024;-75
2022/08/31 07:28:52;;;;;;;6.03;4.63;;;26.80;99.60;;;;;;5099328;28;20038;-75
2022/08/31 07:31:21;;;;;;;6.22;4.75;;;26.90;99.80;;;;;;5108198;28;20119;-75
2022/08/31 07:33:56;;;;;;;7.20;4.65;;;26.90;99.60;;;;;;5104870;28;20024;-75
2022/08/31 07:36:24;;;;;;;8.95;4.32;;;26.90;99.50;;;;;;5112266;28;20049;-75
2022/08/31 07:44:22;;;;;;;9.68;5.07;;;26.80;99.90;;;;;;5107452;28;20035;-75
2022/08/31 07:46:51;;;;;;;5.50;4.60;;;26.70;99.90;;;;;;5114937;28;20501;-75
2022/08/31 07:49:17;;;;;;;8.00;4.60;;;26.60;99.90;;;;;;5107163;28;20056;-75
2022/08/31 07:51:49;;;;;;;6.10;5.05;;;26.40;99.90;;;;;;5113750;28;20019;-75
2022/08/31 07:54:17;;;;;;;8.15;5.00;;;26.30;99.30;;;;;;5100009;28;20120;-75
2022/08/31 07:56:45;;;;;;;7.10;4.55;;;26.10;99.40;;;;;;5094438;28;20475;-76
2022/08/31 07:59:13;;;;;;;10.57;5.18;;;25.80;99.90;;;;;;5105770;28;20024;-78
2022/08/31 08:01:41;;;;;;;11.32;5.50;;;25.60;99.90;;;;;;5074153;28;20021;-76
2022/08/31 08:04:07;;;;;;;9.52;5.38;;;25.40;99.90;;;;;;5103029;28;20032;-77
2022/08/31 08:06:34;;;;;;;8.60;5.15;;;25.20;99.90;;;;;;5112481;28;20497;-77
2022/08/31 08:09:06;;;;;;;8.27;5.97;;;25.00;99.90;;;;;;5108177;28;20038;-78
2022/08/31 08:11:35;;;;;;;10.10;5.68;;;24.90;99.90;;;;;;5112618;28;20031;-77
2022/08/31 08:14:03;;;;;;;7.68;5.43;;;24.70;99.90;;;;;;5108133;28;20484;-76
2022/08/31 08:16:29;;;;;;;14.98;6.07;;;24.70;99.90;;;;;;5110706;28;20020;-76
2022/08/31 08:18:55;;;;;;;9.35;5.32;;;24.60;99.90;;;;;;5106883;28;20459;-76
2022/08/31 08:21:20;;;;;;;10.85;5.70;;;24.60;99.90;;;;;;5094682;28;20111;-77
2022/08/31 08:23:46;;;;;;;10.57;5.10;;;24.60;99.90;;;;;;5102417;28;20026;-76
2022/08/31 08:26:12;;;;;;;7.30;5.45;;;24.70;99.90;;;;;;5110295;28;20477;-76
2022/08/31 08:28:38;;;;;;;7.95;5.47;;;24.80;99.90;;;;;;5107830;28;20035;-76
2022/08/31 08:31:05;;;;;;;8.65;5.47;;;24.80;99.90;;;;;;5112663;28;20031;-79
2022/08/31 08:33:32;;;;;;;9.95;5.55;;;24.90;99.90;;;;;;5105066;28;20024;-76
2022/08/31 08:36:01;;;;;;;8.32;5.50;;;25.10;99.90;;;;;;5094855;28;20055;-76
2022/08/31 08:38:29;;;;;;;7.10;5.18;;;25.20;99.90;;;;;;5098053;28;20031;-76
2022/08/31 08:40:57;;;;;;;8.20;5.60;;;25.30;99.90;;;;;;5095050;28;20474;-76
2022/08/31 08:43:32;;;;;;;15.27;6.22;;;25.20;99.90;;;;;;5096454;28;20024;-76
2022/08/31 08:46:00;;;;;;;15.40;6.10;;;25.10;99.90;;;;;;5094372;28;20024;-76
2022/08/31 08:48:29;;;;;;;16.00;6.10;;;24.90;99.90;;;;;;5098344;28;20036;-76
2022/08/31 08:50:54;;;;;;;8.73;5.38;;;24.80;99.90;;;;;;5094788;28;20027;-76
2022/08/31 08:53:23;;;;;;;7.80;5.65;;;24.70;99.90;;;;;;5099093;28;20490;-76
2022/08/31 08:55:49;;;;;;;10.40;6.03;;;24.60;99.90;;;;;;5108551;28;20073;-76
2022/08/31 08:58:17;;;;;;;20.85;6.57;;;24.50;99.90;;;;;;5104226;28;20061;-76
2022/08/31 09:00:50;;;;;;;16.13;6.68;;;24.40;99.90;;;;;;5110744;28;20019;-76
2022/08/31 09:03:28;;;;;;;10.43;6.80;;;24.20;99.90;;;;;;5105543;28;20016;-76
2022/08/31 09:06:18;;;;;;;16.80;8.40;;;23.90;99.90;;;;;;5111822;28;20020;-76
2022/08/31 09:09:07;;;;;;;19.20;10.27;;;23.30;99.90;;;;;;5101052;28;20055;-75
2022/08/31 09:11:45;;;;;;;12.75;9.95;;;22.60;99.90;;;;;;5111947;28;20019;-75
2022/08/31 09:14:58;;;;;;;13.50;10.35;;;22.30;99.90;;;;;;5096627;28;20031;-75
2022/08/31 09:17:42;;;;;;;12.98;9.95;;;22.20;99.90;;;;;;5062054;28;20024;-75
2022/08/31 09:20:11;;;;;;;17.83;10.05;;;22.20;99.90;;;;;;5108609;28;20063;-76
2022/08/31 09:22:49;;;;;;;17.65;9.60;;;22.30;99.90;;;;;;5099564;28;20490;-75
2022/08/31 09:25:27;;;;;;;17.10;12.85;;;22.40;99.90;;;;;;5095090;28;20440;-75
2022/08/31 09:27:56;;;;;;;18.98;12.90;;;22.10;99.90;;;;;;5095813;28;20031;-75
2022/08/31 09:30:49;;;;;;;18.48;14.48;;;21.90;99.90;;;;;;5109673;28;20088;-75
2022/08/31 09:33:24;;;;;;;17.50;14.57;;;21.70;99.90;;;;;;5106685;28;20069;-76
2022/08/31 09:35:55;;;;;;;22.80;15.95;;;21.70;99.90;;;;;;5109961;28;20039;-76
2022/08/31 09:38:29;;;;;;;21.00;14.68;;;21.90;99.90;;;;;;5106926;28;20020;-75
2022/08/31 09:40:55;;;;;;;24.30;16.67;;;21.90;99.90;;;;;;5111179;28;20024;-76
2022/08/31 09:43:36;;;;;;;18.00;13.10;;;22.00;99.90;;;;;;5104749;28;20012;-75
2022/08/31 09:46:27;;;;;;;16.90;12.40;;;22.00;99.90;;;;;;5093450;28;20356;-76
2022/08/31 09:48:58;;;;;;;18.73;12.95;;;21.90;99.90;;;;;;5097179;28;20051;-78
2022/08/31 09:51:27;;;;;;;19.75;14.93;;;21.90;99.90;;;;;;5112011;28;20131;-76
2022/08/31 09:56:54;;;;;;;23.35;13.65;;;22.20;99.90;;;;;;5112608;28;20076;-76
2022/08/31 09:59:32;;;;;;;20.05;14.25;;;22.40;99.90;;;;;;5103847;28;20034;-76
2022/08/31 10:02:01;;;;;;;19.38;15.63;;;22.60;99.90;;;;;;5110304;28;20031;-76
2022/08/31 10:04:30;;;;;;;44.80;28.73;;;22.80;99.90;;;;;;5103854;28;20023;-76
2022/08/31 10:07:12;;;;;;;45.00;31.98;;;23.10;99.90;;;;;;5111834;28;20035;-75
2022/08/31 10:09:50;;;;;;;34.17;21.95;;;23.30;99.90;;;;;;5105176;28;20073;-76
2022/08/31 10:12:38;;;;;;;32.60;24.95;;;23.50;99.90;;;;;;5109800;28;20535;-76
2022/08/31 10:15:16;;;;;;;23.02;17.83;;;23.60;99.90;;;;;;5091880;28;20068;-76
2022/08/31 10:17:53;;;;;;;17.27;14.95;;;23.70;99.90;;;;;;5092136;28;20386;-75
2022/08/31 10:20:45;;;;;;;16.92;14.65;;;23.70;99.90;;;;;;5107605;28;20052;-76
2022/08/31 10:23:33;;;;;;;21.95;14.02;;;23.80;99.90;;;;;;5106191;28;20023;-76
2022/08/31 10:26:15;;;;;;;15.77;13.15;;;23.90;99.90;;;;;;5093034;28;20031;-76
2022/08/31 10:28:54;;;;;;;16.88;10.48;;;24.00;99.90;;;;;;5098118;28;20121;-75
2022/08/31 10:31:44;;;;;;;19.48;10.65;;;24.00;99.90;;;;;;5109166;28;20377;-75
2022/08/31 10:38:07;;;;;;;13.00;10.60;;;24.10;99.90;;;;;;5070256;28;20501;-76
2022/08/31 10:41:08;;;;;;;13.05;10.18;;;24.30;99.90;;;;;;5108757;28;20032;-75
2022/08/31 10:43:49;;;;;;;12.93;10.02;;;24.40;99.90;;;;;;5103233;28;20062;-76
2022/08/31 10:46:16;;;;;;;12.95;9.75;;;24.50;99.90;;;;;;5110082;27;20385;-76
2022/08/31 10:48:45;;;;;;;11.93;9.52;;;24.60;99.90;;;;;;5105369;28;20055;-76
2022/08/31 10:51:18;;;;;;;10.30;8.48;;;24.60;99.90;;;;;;5108708;28;20363;-76
2022/08/31 10:54:08;;;;;;;13.77;9.55;;;24.70;99.90;;;;;;5102678;28;20024;-75
2022/08/31 10:56:57;;;;;;;13.10;9.35;;;24.70;99.90;;;;;;5106772;28;20748;-76
2022/08/31 10:59:35;;;;;;;13.10;9.20;;;24.70;99.90;;;;;;5100630;28;20059;-75
2022/08/31 11:02:19;;;;;;;12.88;9.13;;;24.60;99.90;;;;;;5107365;28;20088;-75
2022/08/31 11:05:02;;;;;;;12.30;9.90;;;24.60;99.90;;;;;;5101288;28;20386;-75
2022/08/31 11:07:30;;;;;;;;;;;24.80;99.90;;;;;;5104902;28;20042;-75
2022/08/31 11:10:22;;;;;;;12.07;9.18;;;25.10;99.90;;;;;;5106208;28;19908;-75
2022/08/31 11:12:57;;;;;;;11.60;7.68;;;25.40;99.90;;;;;;5106732;28;20499;-75
2022/08/31 11:15:29;;;;;;;9.43;7.50;;;25.80;99.90;;;;;;5107195;28;20046;-76
2022/08/31 11:18:07;;;;;;;10.68;7.40;;;26.10;99.90;;;;;;5105617;28;20105;-72
2022/08/31 11:20:51;;;;;;;10.25;7.30;;;26.40;99.90;;;;;;5109973;28;20478;-74
2022/08/31 11:23:28;;;;;;;8.35;7.20;;;26.60;99.90;;;;;;5105646;28;20028;-74
2022/08/31 11:26:13;;;;;;;8.82;6.90;;;26.90;99.90;;;;;;5110265;28;20055;-73
2022/08/31 11:29:08;;;;;;;7.88;7.07;;;27.10;99.90;;;;;;5101517;28;20039;-76
2022/08/31 11:31:35;;;;;;;10.50;6.93;;;27.40;99.90;;;;;;5099270;28;20020;-75
2022/08/31 11:34:21;;;;;;;10.65;6.35;;;27.80;99.90;;;;;;5101754;28;20371;-75
2022/08/31 11:36:48;;;;;;;7.55;6.18;;;28.20;99.90;;;;;;5070612;28;20097;-74
2022/08/31 11:39:25;;;;;;;9.80;5.80;;;28.50;99.90;;;;;;5102334;28;20047;-74
2022/08/31 11:41:52;;;;;;;8.70;6.60;;;28.60;99.90;;;;;;5111667;28;20020;-74
2022/08/31 11:44:30;;;;;;;10.40;6.03;;;28.70;99.90;;;;;;5103199;28;20391;-75
2022/08/31 11:47:06;;;;;;;7.28;5.55;;;28.80;99.90;;;;;;5111196;28;20035;-75
2022/08/31 11:49:42;;;;;;;11.63;5.22;;;29.10;99.90;;;;;;5096380;28;20111;-74
2022/08/31 11:52:24;;;;;;;7.88;5.35;;;29.30;99.90;;;;;;5091542;28;20028;-75
2022/08/31 11:54:51;;;;;;;13.70;5.55;;;29.50;99.90;;;;;;5095100;28;20338;-75
2022/08/31 11:57:22;;;;;;;5.75;4.75;;;29.70;99.90;;;;;;5091287;28;20020;-75
2022/08/31 11:59:49;;;;;;;6.35;4.95;;;29.90;99.90;;;;;;5095228;28;20089;-75
2022/08/31 12:02:21;;;;;;;7.18;4.55;;;30.30;99.90;;;;;;5091525;28;20024;-75
2022/08/31 12:05:01;;;;;;;6.95;4.70;;;30.80;99.90;;;;;;5094271;28;20065;-75
2022/08/31 12:07:33;;;;;;;7.85;4.40;;;31.20;99.90;;;;;;5092453;28;20032;-75
2022/08/31 12:10:17;;;;;;;6.82;4.78;;;31.70;99.90;;;;;;5092254;28;20047;-75
2022/08/31 12:13:17;;;;;;;5.05;4.03;;;32.00;99.90;;;;;;5095077;28;20035;-75
2022/08/31 12:16:10;;;;;;;10.10;3.78;;;32.70;99.90;;;;;;5085913;28;20475;-76
2022/08/31 12:18:57;;;;;;;3.95;3.42;;;35.00;99.90;;;;;;5098837;28;20106;-76
2022/08/31 12:24:28;;;;;;;3.55;3.25;;;37.20;97.00;;;;;;5102843;28;20030;-76
2022/08/31 12:27:18;;;;;;;6.13;3.55;;;38.10;94.90;;;;;;5109421;28;20035;-77
2022/08/31 12:29:44;;;;;;;4.05;2.97;;;39.00;93.40;;;;;;5105110;28;20118;-75
2022/08/31 12:32:28;;;;;;;6.22;3.00;;;40.30;91.80;;;;;;5108575;28;20019;-76
2022/08/31 12:34:57;;;;;;;3.47;3.13;;;41.10;88.60;;;;;;5096095;28;20020;-76
2022/08/31 12:37:28;;;;;;;5.55;3.33;;;41.00;86.60;;;;;;5090712;28;20036;-78
2022/08/31 12:40:19;;;;;;;4.97;3.10;;;40.90;86.10;;;;;;5104886;28;20020;-76
2022/08/31 12:42:57;;;;;;;3.30;3.00;;;40.80;86.10;;;;;;5106206;28;20032;-76
2022/08/31 12:46:01;;;;;;;3.53;3.20;;;41.10;82.30;;;;;;5092711;28;20028;-77
2022/08/31 12:48:29;;;;;;;3.83;3.22;;;41.20;81.50;;;;;;5080221;28;20050;-77
2022/08/31 12:51:11;;;;;;;5.90;3.38;;;40.70;81.40;;;;;;5107065;28;20075;-77
2022/08/31 12:53:48;;;;;;;3.67;3.08;;;40.60;81.70;;;;;;5104479;28;20549;-78
2022/08/31 12:56:33;;;;;;;4.25;3.10;;;39.80;80.60;;;;;;5108653;28;20023;-78
2022/08/31 12:59:14;;;;;;;4.00;3.22;;;39.00;86.50;;;;;;5102645;28;20024;-77
2022/08/31 13:01:48;;;;;;;4.53;3.30;;;40.00;83.60;;;;;;5068192;28;20029;-77
2022/08/31 13:04:15;;;;;;;3.80;2.85;;;41.40;81.30;;;;;;5100437;28;20016;-79
2022/08/31 13:06:43;;;;;;;3.53;3.00;;;43.30;77.30;;;;;;5109915;28;20038;-77
2022/08/31 13:09:30;;;;;;;3.22;2.75;;;44.60;73.70;;;;;;5102944;28;20084;-77
2022/08/31 13:11:59;;;;;;;3.72;2.67;;;45.80;71.90;;;;;;5074257;28;20362;-77
2022/08/31 13:14:37;;;;;;;5.22;2.80;;;47.10;66.80;;;;;;5101092;28;20505;-75
2022/08/31 13:17:16;;;;;;;4.55;2.70;;;47.30;65.70;;;;;;5097044;28;20039;-78
2022/08/31 13:19:57;;;;;;;4.25;2.72;;;46.10;65.90;;;;;;5092826;28;20539;-82